Detroit, Oregon
Current Conditions -  °F | °C
As of 7:56 AM on Tuesday 21 Oct 2014 (Local Time) from KSLE Reporting Station
Broken Clouds Broken Clouds  
Wind Chill: 54°   Ceiling: 4800
Heat Index: 54°   Visibility: 10mi
Dew Point: 48°   Wind: 16mph
Humidity: 80%   Direction: 160°SSE
Pressure: 29.97"   Gusts: NA
Location:  44.73°N, 122.15°W
Report Text: KSLE 211456Z 16014KT 10SM SCT038 BKN048 BKN070 12/09 A2997 RMK AO2 SLP149 60003 T01220089 51014
Loading
Personal Weather Stations






























Interactive Weather Map
Tropical Storm Tracking
New forecast layout! Learn more

10-Day Weather Forecast

Advertisements
Track Severe Weather on mobile